Time;durP1;ratioP1;P1;durP2;ratioP2;P2;SDS_P1;SDS_P2;PMS_P1;PMS_P2;Temp;Humidity;BMP_temperature;BMP_pressure;BME280_temperature;BME280_humidity;BME280_pressure;Samples;Min_cycle;Max_cycle;Signal;HPM_P1;HPM_P2
2021/01/03 00:01:21;;;;;;;18.80;12.77;;;;;;;5.35;65.38;94837.84;4200590;28;20052;-83
2021/01/03 00:03:23;;;;;;;15.85;11.88;;;;;;;5.42;65.72;94840.78;4198947;28;20106;-81
2021/01/03 00:05:28;;;;;;;18.00;12.35;;;;;;;5.50;65.27;94836.59;4197082;28;20056;-84
2021/01/03 00:07:30;;;;;;;18.70;12.30;;;;;;;5.58;65.02;94843.78;4212870;28;20050;-86
2021/01/03 00:09:31;;;;;;;18.35;12.75;;;;;;;5.68;65.04;94849.06;4196240;28;20518;-88
2021/01/03 00:11:32;;;;;;;23.55;14.25;;;;;;;5.70;65.41;94848.00;4196400;28;20550;-84
2021/01/03 00:13:33;;;;;;;20.83;13.45;;;;;;;5.74;64.46;94836.41;4212994;28;20086;-85
2021/01/03 00:15:34;;;;;;;18.75;12.48;;;;;;;5.81;64.29;94848.88;4197845;28;20106;-83
2021/01/03 00:17:38;;;;;;;18.85;12.10;;;;;;;5.79;65.62;94843.00;4197611;28;20070;-83
2021/01/03 00:19:39;;;;;;;19.98;13.85;;;;;;;5.78;65.29;94849.13;4196245;28;20055;-82
2021/01/03 00:21:40;;;;;;;19.58;13.15;;;;;;;5.73;66.00;94837.34;4219906;28;20491;-83
2021/01/03 00:23:42;;;;;;;23.80;13.40;;;;;;;5.75;65.88;94834.63;4197414;28;20090;-82
2021/01/03 00:25:44;;;;;;;22.67;14.02;;;;;;;5.82;65.82;94838.34;4197872;28;20502;-82
2021/01/03 00:27:46;;;;;;;19.52;14.52;;;;;;;5.82;66.39;94842.72;4195557;28;20186;-82
2021/01/03 00:29:47;;;;;;;19.48;13.30;;;;;;;5.86;65.92;94839.75;4202955;28;20111;-83
2021/01/03 00:31:50;;;;;;;19.65;14.45;;;;;;;5.86;66.42;94841.53;4207589;28;20064;-82
2021/01/03 00:33:51;;;;;;;19.92;14.35;;;;;;;5.80;66.43;94827.25;4197921;28;20048;-83
2021/01/03 00:35:52;;;;;;;21.73;13.35;;;;;;;5.84;66.85;94826.06;4204612;28;20051;-83
2021/01/03 00:37:59;;;;;;;21.15;14.32;;;;;;;5.90;66.70;94828.16;4197041;28;20090;-84
2021/01/03 00:40:00;;;;;;;19.23;14.32;;;;;;;5.66;67.29;94815.41;4192927;28;20570;-84
2021/01/03 00:42:02;;;;;;;21.83;13.80;;;;;;;5.66;67.60;94818.00;4193384;28;20053;-83
2021/01/03 00:44:07;;;;;;;22.98;15.00;;;;;;;5.70;67.97;94821.16;4194489;28;20060;-85
2021/01/03 00:46:08;;;;;;;23.17;14.80;;;;;;;5.73;67.92;94823.53;4194689;28;20059;-82
2021/01/03 00:48:10;;;;;;;20.98;14.38;;;;;;;5.76;67.83;94831.06;4193518;28;20114;-71
2021/01/03 00:50:13;;;;;;;18.45;13.48;;;;;;;5.89;67.25;94828.25;4176178;28;20423;-71
2021/01/03 00:52:14;;;;;;;19.27;14.27;;;;;;;5.91;67.69;94816.78;4187326;28;20087;-71
2021/01/03 00:54:15;;;;;;;18.50;14.00;;;;;;;5.96;66.80;94819.06;4176361;28;20053;-69
2021/01/03 00:56:16;;;;;;;21.13;13.68;;;;;;;5.91;67.13;94823.75;4191162;28;20074;-71
2021/01/03 00:58:18;;;;;;;19.08;13.30;;;;;;;5.92;67.64;94810.66;4192581;28;20052;-69
2021/01/03 01:00:29;;;;;;;19.85;13.80;;;;;;;5.97;67.49;94812.06;4188403;28;20403;-70
2021/01/03 01:02:30;;;;;;;20.95;14.65;;;;;;;5.95;67.41;94807.81;4193392;28;20573;-71
2021/01/03 01:04:31;;;;;;;21.85;14.48;;;;;;;5.91;68.31;94802.97;4192259;28;20494;-70
2021/01/03 01:06:32;;;;;;;22.00;15.35;;;;;;;5.96;67.73;94800.84;4190953;28;20053;-69
2021/01/03 01:08:35;;;;;;;23.25;15.25;;;;;;;6.04;67.87;94808.81;4193001;28;21637;-70
2021/01/03 01:10:38;;;;;;;21.60;14.60;;;;;;;6.01;68.16;94800.47;4192627;28;20139;-70
2021/01/03 01:12:39;;;;;;;23.33;15.07;;;;;;;6.00;68.56;94793.59;4190942;28;20052;-69
2021/01/03 01:14:41;;;;;;;21.90;14.35;;;;;;;6.04;68.81;94787.19;4194002;28;20052;-71
2021/01/03 01:16:42;;;;;;;23.33;16.13;;;;;;;6.04;69.07;94788.00;4191229;28;20052;-72
2021/01/03 01:18:43;;;;;;;23.92;16.33;;;;;;;6.02;68.74;94781.28;4192811;28;20418;-69
2021/01/03 01:20:44;;;;;;;25.98;16.35;;;;;;;5.95;69.37;94775.78;4187126;28;20048;-83
2021/01/03 01:22:45;;;;;;;25.27;16.35;;;;;;;5.86;70.05;94773.94;4162266;28;20507;-83
2021/01/03 01:24:47;;;;;;;25.42;16.45;;;;;;;5.84;70.72;94771.44;4209445;28;20137;-83
2021/01/03 01:26:48;;;;;;;24.80;16.80;;;;;;;5.93;70.46;94770.66;4186424;28;20063;-83
2021/01/03 01:28:49;;;;;;;26.05;16.88;;;;;;;6.02;70.29;94773.50;4197994;28;20053;-83
2021/01/03 01:30:51;;;;;;;24.40;16.83;;;;;;;5.92;70.36;94771.63;4195334;28;20123;-83
2021/01/03 01:32:52;;;;;;;26.00;17.33;;;;;;;5.99;70.50;94758.97;4187174;28;20049;-84
2021/01/03 01:34:53;;;;;;;24.58;15.60;;;;;;;5.92;70.94;94763.03;4196546;28;20052;-84
2021/01/03 01:36:54;;;;;;;21.05;15.07;;;;;;;5.85;71.53;94762.72;4196510;28;20164;-83
2021/01/03 01:38:56;;;;;;;27.58;17.58;;;;;;;5.80;71.72;94753.66;4194556;28;20051;-83
2021/01/03 01:40:57;;;;;;;26.48;16.98;;;;;;;5.86;71.04;94753.13;4198159;28;20049;-85
2021/01/03 01:42:59;;;;;;;27.67;17.92;;;;;;;5.80;71.40;94749.25;4178925;28;20525;-84
2021/01/03 01:45:03;;;;;;;24.48;17.08;;;;;;;5.81;71.66;94753.53;4196872;28;20053;-83
2021/01/03 01:47:25;;;;;;;30.27;18.27;;;;;;;5.82;72.30;94744.75;4195197;28;20044;-83
2021/01/03 01:49:27;;;;;;;25.67;16.88;;;;;;;5.84;72.00;94729.03;4196841;28;20099;-82
2021/01/03 01:51:37;;;;;;;26.90;17.73;;;;;;;5.83;72.27;94729.97;4179295;28;20140;-83
2021/01/03 01:53:58;;;;;;;25.80;17.98;;;;;;;5.81;72.19;94722.31;4196756;28;20186;-82
2021/01/03 01:56:07;;;;;;;25.42;16.95;;;;;;;5.70;72.11;94725.84;4205308;28;20056;-83
2021/01/03 01:58:13;;;;;;;27.50;17.77;;;;;;;5.72;72.24;94726.53;4204781;28;20052;-85
2021/01/03 02:00:23;;;;;;;23.38;16.88;;;;;;;5.84;72.25;94729.03;4198452;28;20051;-81
2021/01/03 02:02:34;;;;;;;26.60;17.60;;;;;;;5.93;72.03;94723.06;4200961;28;20083;-84
2021/01/03 02:04:48;;;;;;;25.38;17.52;;;;;;;6.03;71.83;94729.16;4200515;28;20056;-82
2021/01/03 02:06:52;;;;;;;;;;;;;;;6.13;70.92;94714.41;4198169;28;20481;-82
2021/01/03 02:09:04;;;;;;;27.45;17.08;;;;;;;6.23;70.46;94716.22;4196172;28;19927;-82
2021/01/03 02:11:08;;;;;;;28.65;18.58;;;;;;;6.28;70.39;94720.09;4196303;28;20081;-83
2021/01/03 02:13:16;;;;;;;29.23;17.50;;;;;;;6.35;69.94;94720.38;4195946;28;20052;-83
2021/01/03 02:15:26;;;;;;;27.13;17.60;;;;;;;6.40;69.95;94719.97;4196522;28;20087;-84
2021/01/03 02:17:27;;;;;;;26.38;17.77;;;;;;;6.44;69.75;94713.56;4196216;28;20052;-82
2021/01/03 02:19:30;;;;;;;25.00;17.58;;;;;;;6.49;69.62;94719.97;4191212;28;20123;-82
2021/01/03 02:21:45;;;;;;;24.45;17.48;;;;;;;6.51;69.01;94717.25;4203502;28;20056;-81
2021/01/03 02:24:13;;;;;;;27.77;17.65;;;;;;;6.59;69.18;94719.19;4196505;28;20048;-84
2021/01/03 02:26:16;;;;;;;24.88;15.75;;;;;;;6.48;69.80;94712.34;4177013;28;20049;-83
2021/01/03 02:28:21;;;;;;;23.67;16.88;;;;;;;6.37;70.08;94710.66;4205620;28;20104;-83
2021/01/03 02:30:25;;;;;;;24.65;16.33;;;;;;;6.43;69.21;94710.13;4194578;28;20041;-82
2021/01/03 02:32:29;;;;;;;24.65;17.48;;;;;;;6.46;68.97;94717.66;4183535;28;20404;-69
2021/01/03 02:34:41;;;;;;;27.35;18.83;;;;;;;6.32;67.27;94711.06;4185602;28;20450;-69
2021/01/03 02:36:48;;;;;;;28.20;18.63;;;;;;;6.28;67.67;94722.69;4188681;28;20434;-72
2021/01/03 02:39:13;;;;;;;31.98;19.35;;;;;;;6.27;67.23;94722.81;4192070;28;20052;-69
2021/01/03 02:41:17;;;;;;;32.50;19.23;;;;;;;6.21;67.22;94716.34;4192974;28;20102;-70
2021/01/03 02:43:18;;;;;;;27.97;18.60;;;;;;;6.20;67.24;94725.13;4188110;28;20105;-71
2021/01/03 02:45:21;;;;;;;30.02;18.50;;;;;;;6.17;67.25;94724.56;4191460;28;20048;-69
2021/01/03 02:47:26;;;;;;;31.42;19.20;;;;;;;6.09;67.33;94726.03;4191567;28;20570;-70
2021/01/03 02:49:27;;;;;;;30.58;18.80;;;;;;;6.12;67.42;94722.34;4190794;28;20502;-70
2021/01/03 02:51:32;;;;;;;28.23;18.50;;;;;;;6.15;66.88;94722.91;4191695;28;20052;-69
2021/01/03 02:53:34;;;;;;;29.17;19.40;;;;;;;6.17;67.08;94722.75;4190436;28;20499;-69
2021/01/03 02:55:35;;;;;;;26.23;17.77;;;;;;;6.12;67.66;94714.53;4192391;28;20053;-68
2021/01/03 02:57:38;;;;;;;29.70;18.15;;;;;;;6.15;67.91;94727.28;4191385;28;20102;-69
2021/01/03 02:59:39;;;;;;;28.50;18.05;;;;;;;6.19;67.75;94720.84;4192420;28;20178;-69
2021/01/03 03:01:41;;;;;;;27.63;18.88;;;;;;;6.22;68.40;94719.78;4172985;28;20076;-69
2021/01/03 03:03:42;;;;;;;26.83;18.70;;;;;;;6.24;67.72;94720.47;4183653;28;20139;-68
2021/01/03 03:05:43;;;;;;;28.10;18.33;;;;;;;6.28;67.18;94727.03;4181963;28;20103;-69
2021/01/03 03:07:44;;;;;;;28.55;19.17;;;;;;;6.32;67.46;94729.28;4175609;28;20067;-70
2021/01/03 03:09:46;;;;;;;26.23;19.17;;;;;;;6.34;67.55;94727.34;4189728;28;20045;-82
2021/01/03 03:11:48;;;;;;;27.25;19.08;;;;;;;6.30;67.79;94736.38;4195766;28;20060;-82
2021/01/03 03:13:49;;;;;;;29.80;18.80;;;;;;;6.35;67.87;94730.78;4198883;28;20079;-84
2021/01/03 03:15:50;;;;;;;28.98;18.77;;;;;;;6.27;68.32;94720.22;4198550;28;20052;-83
2021/01/03 03:17:51;;;;;;;33.05;19.92;;;;;;;6.27;68.47;94725.41;4199418;28;20108;-82
2021/01/03 03:19:52;;;;;;;29.42;19.23;;;;;;;6.19;69.17;94727.84;4208759;28;20260;-82
2021/01/03 03:21:54;;;;;;;31.10;20.60;;;;;;;5.81;69.32;94719.72;4198422;28;20052;-83
2021/01/03 03:23:55;;;;;;;27.00;19.33;;;;;;;5.63;70.71;94721.25;4195021;28;20489;-81
2021/01/03 03:25:56;;;;;;;29.48;18.10;;;;;;;5.41;71.99;94715.25;4195896;28;20122;-82
2021/01/03 03:27:57;;;;;;;29.98;19.35;;;;;;;5.40;72.57;94721.41;4190863;28;20048;-83
2021/01/03 03:29:58;;;;;;;33.03;20.38;;;;;;;5.52;72.48;94719.56;4206844;28;20449;-81
2021/01/03 03:32:00;;;;;;;34.22;20.45;;;;;;;5.65;71.65;94714.16;4202247;28;20102;-82
2021/01/03 03:34:02;;;;;;;28.60;18.98;;;;;;;5.74;71.67;94714.22;4195146;28;20060;-82
2021/01/03 03:36:03;;;;;;;26.50;18.88;;;;;;;5.65;72.02;94714.97;4193619;28;20415;-82
2021/01/03 03:38:06;;;;;;;28.73;18.92;;;;;;;5.54;72.10;94708.09;4210041;28;20503;-83
2021/01/03 03:40:08;;;;;;;28.20;18.80;;;;;;;5.62;72.71;94712.66;4189227;28;20103;-83
2021/01/03 03:42:10;;;;;;;30.70;18.98;;;;;;;5.71;71.94;94711.88;4192711;28;20083;-82
2021/01/03 03:44:11;;;;;;;26.33;18.45;;;;;;;5.78;71.86;94717.38;4192317;28;20060;-83
2021/01/03 03:46:12;;;;;;;29.75;18.92;;;;;;;5.85;70.94;94709.88;4191981;28;20560;-83
2021/01/03 03:48:13;;;;;;;36.47;18.50;;;;;;;5.89;70.52;94706.06;4184136;28;20053;-82
2021/01/03 03:50:17;;;;;;;24.52;17.65;;;;;;;5.95;70.86;94701.19;4189767;28;20057;-83
2021/01/03 03:52:19;;;;;;;26.70;18.08;;;;;;;5.99;70.96;94706.97;4198169;28;20052;-82
2021/01/03 03:54:20;;;;;;;30.17;19.42;;;;;;;6.04;70.99;94706.56;4182458;28;20132;-83
2021/01/03 03:56:21;;;;;;;24.48;17.13;;;;;;;6.10;70.77;94706.03;4183856;28;20118;-83
2021/01/03 03:58:23;;;;;;;25.83;17.50;;;;;;;6.09;70.98;94702.63;4197227;28;20084;-82
2021/01/03 04:00:25;;;;;;;25.58;16.55;;;;;;;6.17;70.52;94703.75;4197981;28;20048;-83
2021/01/03 04:02:26;;;;;;;28.52;17.30;;;;;;;6.17;70.52;94703.75;4202008;28;20048;-83
2021/01/03 04:04:27;;;;;;;23.65;16.55;;;;;;;6.17;70.10;94706.34;4199228;28;20514;-82
2021/01/03 04:06:29;;;;;;;23.48;15.88;;;;;;;6.21;70.21;94705.13;4195651;28;20544;-85
2021/01/03 04:08:30;;;;;;;24.92;15.73;;;;;;;6.28;70.57;94703.63;4197628;28;20132;-83
2021/01/03 04:10:31;;;;;;;24.38;15.98;;;;;;;6.33;70.06;94710.09;4196374;28;20049;-83
2021/01/03 04:12:33;;;;;;;25.67;15.85;;;;;;;6.40;70.67;94702.56;4206377;28;20242;-82
2021/01/03 04:14:34;;;;;;;22.02;15.57;;;;;;;6.39;70.35;94703.53;4199858;28;20153;-82
2021/01/03 04:16:35;;;;;;;23.88;15.88;;;;;;;6.44;70.38;94701.34;4197417;28;20053;-84
2021/01/03 04:18:38;;;;;;;25.60;16.60;;;;;;;6.41;70.34;94708.59;4198063;28;20041;-82
2021/01/03 04:20:39;;;;;;;22.58;15.73;;;;;;;6.38;70.83;94709.69;4208510;28;20054;-84
2021/01/03 04:22:41;;;;;;;24.73;15.88;;;;;;;6.37;70.84;94713.25;4214389;28;20048;-85
2021/01/03 04:24:42;;;;;;;24.05;16.30;;;;;;;6.38;71.16;94703.66;4202173;28;20416;-82
2021/01/03 04:26:52;;;;;;;24.77;16.13;;;;;;;6.39;70.95;94703.53;4195063;28;20116;-81
2021/01/03 04:28:53;;;;;;;21.30;14.70;;;;;;;6.47;71.00;94711.47;4194503;28;20097;-84
2021/01/03 04:30:54;;;;;;;23.15;14.85;;;;;;;6.40;70.76;94707.78;4195587;28;20172;-83
2021/01/03 04:32:56;;;;;;;20.88;14.10;;;;;;;6.29;71.22;94707.91;4178483;28;20076;-83
2021/01/03 04:34:57;;;;;;;20.67;14.05;;;;;;;6.31;71.20;94708.59;4200109;28;20135;-85
2021/01/03 04:36:59;;;;;;;19.00;13.88;;;;;;;6.34;71.55;94716.13;4197486;28;20075;-82
2021/01/03 04:39:00;;;;;;;20.15;13.93;;;;;;;6.40;71.01;94719.97;4196799;28;20084;-82
2021/01/03 04:41:02;;;;;;;19.02;13.30;;;;;;;6.43;70.62;94722.31;4195761;28;20049;-83
2021/01/03 04:43:03;;;;;;;20.20;14.02;;;;;;;6.42;71.00;94721.47;4195368;28;20048;-81
2021/01/03 04:45:14;;;;;;;19.95;13.63;;;;;;;6.46;70.72;94716.84;4195365;28;20060;-83
2021/01/03 04:47:25;;;;;;;17.73;12.75;;;;;;;6.47;70.89;94721.91;4196071;28;20129;-84
2021/01/03 04:49:35;;;;;;;21.67;12.80;;;;;;;6.48;70.73;94720.94;4196648;28;20455;-84
2021/01/03 04:51:52;;;;;;;21.42;13.55;;;;;;;6.52;70.88;94724.13;4197955;28;20059;-86
2021/01/03 04:54:05;;;;;;;17.92;13.23;;;;;;;6.52;70.93;94722.34;4195989;28;20056;-83
2021/01/03 04:56:34;;;;;;;20.98;14.15;;;;;;;6.50;71.31;94719.03;4194258;28;20058;-82
2021/01/03 04:58:51;;;;;;;21.00;13.32;;;;;;;6.51;71.08;94723.28;4194154;28;20076;-84
2021/01/03 05:01:29;;;;;;;22.15;14.05;;;;;;;6.52;71.68;94722.34;4212754;28;20040;-82
2021/01/03 05:03:55;;;;;;;20.20;13.98;;;;;;;6.48;72.19;94723.56;4186479;28;20048;-84
2021/01/03 05:06:02;;;;;;;25.80;16.38;;;;;;;6.17;73.52;94727.16;4196297;28;20086;-82
2021/01/03 05:08:28;;;;;;;24.80;16.13;;;;;;;5.29;75.28;94732.69;4195151;28;20443;-83
2021/01/03 05:10:29;;;;;;;22.90;15.57;;;;;;;5.04;77.55;94739.06;4195190;28;20048;-82
2021/01/03 05:12:35;;;;;;;24.08;15.90;;;;;;;4.92;77.56;94732.25;4207124;28;20152;-84
2021/01/03 05:14:43;;;;;;;33.17;21.23;;;;;;;4.88;77.93;94734.28;4195161;28;20056;-82
2021/01/03 05:16:51;;;;;;;32.95;22.92;;;;;;;4.91;77.92;94734.03;4197233;28;20098;-81
2021/01/03 05:18:53;;;;;;;33.00;21.73;;;;;;;4.87;78.95;94730.03;4205449;28;20406;-82
2021/01/03 05:21:06;;;;;;;30.10;19.98;;;;;;;5.06;78.02;94723.34;4196296;28;20039;-83
2021/01/03 05:23:19;;;;;;;35.53;23.58;;;;;;;5.13;77.45;94721.91;4194357;28;20049;-82
2021/01/03 05:25:38;;;;;;;40.75;24.35;;;;;;;4.99;78.53;94725.63;4184160;28;20522;-83
2021/01/03 05:27:39;;;;;;;40.03;23.58;;;;;;;5.12;78.43;94728.88;4194980;28;20063;-83
2021/01/03 05:29:41;;;;;;;37.10;24.80;;;;;;;5.33;77.58;94730.66;4192995;28;20048;-82
2021/01/03 05:31:55;;;;;;;37.10;25.05;;;;;;;5.48;76.84;94718.97;4194065;28;20114;-84
2021/01/03 05:34:08;;;;;;;37.40;25.55;;;;;;;5.54;76.19;94722.84;4194372;28;20538;-83
2021/01/03 05:36:33;;;;;;;39.58;25.35;;;;;;;5.30;76.96;94730.91;4211027;28;20147;-83
2021/01/03 05:38:41;;;;;;;34.63;23.63;;;;;;;5.17;78.36;94731.09;4196195;28;20052;-85
2021/01/03 05:40:43;;;;;;;35.38;22.95;;;;;;;5.29;77.54;94729.25;4203462;28;20615;-83
2021/01/03 05:42:44;;;;;;;162.43;100.13;;;;;;;5.43;77.13;94722.94;4207572;28;20052;-82
2021/01/03 05:45:12;;;;;;;40.53;25.35;;;;;;;5.52;76.10;94719.56;4195341;28;20135;-84
2021/01/03 05:47:20;;;;;;;39.88;25.08;;;;;;;5.51;76.02;94736.94;4211298;28;20647;-84
2021/01/03 05:49:24;;;;;;;38.00;25.05;;;;;;;5.40;75.42;94724.00;4193194;28;20040;-83
2021/01/03 05:51:46;;;;;;;40.00;23.20;;;;;;;5.39;76.01;94727.53;4193734;28;20132;-83
2021/01/03 05:53:47;;;;;;;34.08;23.80;;;;;;;5.33;75.94;94741.88;4194225;28;20055;-83
2021/01/03 05:56:02;;;;;;;38.45;23.40;;;;;;;5.26;76.56;94734.72;4178955;28;20055;-83
2021/01/03 05:58:17;;;;;;;39.28;25.33;;;;;;;5.04;77.75;94735.63;4182422;28;20135;-85
2021/01/03 06:00:24;;;;;;;38.00;24.45;;;;;;;5.16;77.54;94742.41;4197014;28;20071;-82
2021/01/03 06:02:28;;;;;;;37.33;25.25;;;;;;;5.29;76.61;94734.44;4199311;28;20140;-82
2021/01/03 06:04:29;;;;;;;40.30;23.95;;;;;;;5.40;76.17;94734.41;4195009;28;20059;-84
2021/01/03 06:06:40;;;;;;;35.95;23.52;;;;;;;5.54;75.83;94739.25;4195084;28;20075;-85
2021/01/03 06:08:42;;;;;;;37.67;24.48;;;;;;;5.62;75.36;94732.63;4195944;28;20063;-83
2021/01/03 06:10:44;;;;;;;35.00;22.88;;;;;;;5.70;75.04;94738.81;4195335;28;20055;-85
2021/01/03 06:12:59;;;;;;;36.05;22.58;;;;;;;5.76;75.05;94742.66;4194624;28;20044;-83
2021/01/03 06:15:05;;;;;;;34.47;23.10;;;;;;;5.82;74.59;94734.34;4194869;28;20044;-84
2021/01/03 06:17:12;;;;;;;32.05;22.65;;;;;;;5.71;75.19;94747.44;4194566;28;20054;-83
2021/01/03 06:19:16;;;;;;;34.95;23.98;;;;;;;5.69;75.38;94746.75;4194869;28;20484;-85
2021/01/03 06:21:34;;;;;;;41.45;27.27;;;;;;;5.74;74.66;94742.81;4196138;28;20107;-83
2021/01/03 06:23:45;;;;;;;35.00;23.95;;;;;;;5.78;75.05;94747.75;4185488;28;20052;-83
2021/01/03 06:25:59;;;;;;;32.80;22.67;;;;;;;5.76;74.51;94747.88;4194213;28;20153;-84
2021/01/03 06:28:11;;;;;;;35.55;23.23;;;;;;;5.74;74.79;94742.81;4195806;28;20056;-81
2021/01/03 06:30:15;;;;;;;33.63;22.02;;;;;;;5.80;74.26;94751.84;4192118;28;20048;-83
2021/01/03 06:32:38;;;;;;;35.20;24.45;;;;;;;5.86;74.13;94751.34;4196907;28;20083;-82
2021/01/03 06:34:42;;;;;;;33.97;23.15;;;;;;;5.88;74.52;94764.22;4183837;28;20048;-83
2021/01/03 06:37:04;;;;;;;34.65;22.58;;;;;;;5.93;73.57;94755.06;4193507;28;20052;-82
2021/01/03 06:39:29;;;;;;;34.65;22.13;;;;;;;6.01;73.68;94764.88;4195509;28;20056;-81
2021/01/03 06:41:48;;;;;;;32.65;21.98;;;;;;;6.01;74.01;94756.25;4195734;28;20059;-82
2021/01/03 06:44:14;;;;;;;35.17;23.75;;;;;;;5.90;74.59;94755.34;4195397;28;20056;-84
2021/01/03 06:46:28;;;;;;;33.20;23.95;;;;;;;5.91;74.63;94748.34;4195101;28;20053;-83
2021/01/03 06:49:06;;;;;;;33.65;22.52;;;;;;;5.97;74.27;94763.47;4197383;28;20051;-82
2021/01/03 06:51:35;;;;;;;36.80;24.10;;;;;;;6.04;74.28;94762.00;4199826;28;20052;-82
2021/01/03 06:53:47;;;;;;;34.65;24.00;;;;;;;6.13;74.11;94770.78;4187401;28;20158;-83
2021/01/03 06:56:10;;;;;;;35.22;23.45;;;;;;;6.14;74.00;94768.06;4190357;28;20630;-83
2021/01/03 06:58:30;;;;;;;36.15;24.33;;;;;;;6.14;74.62;94770.69;4181972;28;20415;-83
2021/01/03 07:00:39;;;;;;;32.70;23.80;;;;;;;6.18;74.98;94768.66;4195673;28;20055;-82
2021/01/03 07:02:44;;;;;;;36.60;24.02;;;;;;;6.27;74.14;94767.03;4195350;28;20087;-82
2021/01/03 07:04:45;;;;;;;33.78;23.23;;;;;;;6.32;74.35;94768.31;4186622;28;20060;-83
2021/01/03 07:06:47;;;;;;;33.92;22.58;;;;;;;6.34;74.24;94762.94;4189670;28;20083;-83
2021/01/03 07:08:50;;;;;;;33.42;23.02;;;;;;;6.37;74.41;94757.50;4185476;28;20071;-84
2021/01/03 07:10:52;;;;;;;31.15;21.85;;;;;;;6.42;74.27;94763.13;4197681;28;20118;-84
2021/01/03 07:12:54;;;;;;;32.38;21.70;;;;;;;6.42;73.76;94757.91;4195194;28;20060;-83
2021/01/03 07:14:55;;;;;;;32.47;22.40;;;;;;;6.36;74.37;94761.03;4176868;28;20048;-84
2021/01/03 07:17:08;;;;;;;36.17;22.30;;;;;;;6.34;74.26;94768.16;4194556;28;20049;-82
2021/01/03 07:19:13;;;;;;;33.50;21.95;;;;;;;6.35;74.60;94749.00;4194330;28;20186;-83
2021/01/03 07:21:32;;;;;;;33.80;23.30;;;;;;;6.36;75.05;94753.22;4194370;28;20389;-83
2021/01/03 07:23:40;;;;;;;33.88;22.42;;;;;;;6.37;75.04;94749.69;4188576;28;20411;-81
2021/01/03 07:26:04;;;;;;;32.00;22.17;;;;;;;6.34;75.21;94744.72;4197729;28;20095;-85
2021/01/03 07:28:15;;;;;;;35.33;23.92;;;;;;;6.38;75.30;94738.31;4199603;28;20052;-83
2021/01/03 07:30:27;;;;;;;34.80;21.95;;;;;;;6.45;75.16;94743.81;4197200;28;20037;-83
2021/01/03 07:32:37;;;;;;;35.83;24.05;;;;;;;6.52;75.62;94748.38;4195711;28;20048;-84
2021/01/03 07:34:40;;;;;;;38.03;23.77;;;;;;;6.55;75.06;94753.28;4199250;28;20044;-82
2021/01/03 07:36:43;;;;;;;33.90;23.50;;;;;;;6.64;75.55;94745.66;4197605;28;20106;-83
2021/01/03 07:39:05;;;;;;;39.78;23.63;;;;;;;6.61;75.17;94746.75;4201283;28;20053;-84
2021/01/03 07:41:07;;;;;;;37.47;24.67;;;;;;;6.62;75.52;94750.16;4204102;28;20063;-82
2021/01/03 07:43:09;;;;;;;37.05;23.92;;;;;;;6.63;75.28;94750.03;4198602;28;20048;-69
2021/01/03 07:45:13;;;;;;;32.88;22.65;;;;;;;6.69;75.34;94749.50;4194289;28;20080;-68
2021/01/03 07:47:32;;;;;;;36.30;22.77;;;;;;;6.72;75.44;94744.00;4194406;28;20065;-69
2021/01/03 07:49:45;;;;;;;35.08;22.92;;;;;;;6.75;75.90;94742.91;4193565;28;20367;-70
2021/01/03 07:51:46;;;;;;;36.45;23.77;;;;;;;6.63;75.86;94746.63;4192489;28;20052;-70
2021/01/03 07:53:50;;;;;;;34.10;23.27;;;;;;;6.47;76.08;94740.13;4192569;28;20044;-70
2021/01/03 07:55:51;;;;;;;;;;;;;;;6.47;77.37;94745.31;4195978;28;20102;-72
2021/01/03 07:57:58;;;;;;;33.88;23.73;;;;;;;6.47;77.50;94750.53;4193144;28;20143;-70
2021/01/03 08:00:00;;;;;;;35.00;23.30;;;;;;;6.56;77.81;94747.16;4195320;28;20071;-70
2021/01/03 08:02:01;;;;;;;32.50;23.58;;;;;;;6.54;78.31;94749.06;4192237;28;20049;-70
2021/01/03 08:04:26;;;;;;;32.55;23.85;;;;;;;6.66;77.74;94749.75;4194049;28;20082;-70
2021/01/03 08:06:27;;;;;;;31.57;20.80;;;;;;;6.74;77.85;94759.50;4193249;28;20490;-69
2021/01/03 08:08:28;;;;;;;29.70;20.60;;;;;;;6.85;77.31;94756.78;4209648;28;21107;-69
2021/01/03 08:10:30;;;;;;;30.88;20.35;;;;;;;6.93;77.27;94769.13;4193887;28;20045;-70
2021/01/03 08:12:35;;;;;;;30.52;19.67;;;;;;;6.78;78.12;94771.31;4209085;28;20070;-69
2021/01/03 08:14:40;;;;;;;23.20;17.75;;;;;;;6.75;78.57;94772.41;4208992;28;20044;-70
2021/01/03 08:16:41;;;;;;;22.30;16.83;;;;;;;6.70;78.76;94781.56;4193175;28;20131;-71
2021/01/03 08:18:54;;;;;;;22.38;16.05;;;;;;;6.61;79.10;94796.19;4193956;28;20121;-70
2021/01/03 08:21:07;;;;;;;22.77;15.00;;;;;;;6.69;78.43;94788.56;4193234;28;20406;-69
2021/01/03 08:23:17;;;;;;;23.02;15.45;;;;;;;6.77;79.06;94790.47;4191985;28;20595;-69
2021/01/03 08:25:24;;;;;;;19.40;13.93;;;;;;;6.83;78.09;94808.16;4181956;28;20052;-83
2021/01/03 08:27:41;;;;;;;19.38;14.95;;;;;;;6.93;77.73;94803.81;4195734;28;20110;-83
2021/01/03 08:29:48;;;;;;;19.27;14.90;;;;;;;7.06;77.76;94811.38;4179292;28;20134;-84
2021/01/03 08:31:54;;;;;;;23.13;15.52;;;;;;;7.20;77.71;94794.50;4195906;28;20060;-84
2021/01/03 08:33:58;;;;;;;23.13;15.38;;;;;;;7.23;77.18;94820.31;4196264;28;20044;-83
2021/01/03 08:36:13;;;;;;;20.95;14.32;;;;;;;7.22;77.45;94808.22;4196255;28;20052;-84
2021/01/03 08:38:23;;;;;;;20.42;13.18;;;;;;;7.22;76.27;94813.44;4197009;28;20044;-85
2021/01/03 08:40:30;;;;;;;21.15;13.82;;;;;;;7.28;76.63;94831.16;4188474;28;20077;-69
2021/01/03 08:42:37;;;;;;;17.08;12.60;;;;;;;7.22;76.02;94807.41;4189310;28;20048;-69
2021/01/03 08:44:48;;;;;;;18.10;12.00;;;;;;;7.22;75.89;94810.03;4192712;28;20167;-71
2021/01/03 08:47:00;;;;;;;19.42;13.82;;;;;;;7.30;76.58;94797.13;4193570;28;20139;-68
2021/01/03 08:49:07;;;;;;;17.77;13.18;;;;;;;7.35;76.25;94823.59;4195082;28;20060;-70
2021/01/03 08:51:15;;;;;;;20.10;13.50;;;;;;;7.42;76.46;94811.69;4193241;28;20545;-68
2021/01/03 08:53:25;;;;;;;19.10;13.55;;;;;;;7.49;75.87;94830.22;4192095;28;20480;-68
2021/01/03 08:55:29;;;;;;;20.55;14.10;;;;;;;7.43;76.60;94810.72;4210475;28;20056;-70
2021/01/03 08:57:30;;;;;;;37.42;25.42;;;;;;;7.29;77.47;94825.00;4192840;28;20048;-71
2021/01/03 08:59:32;;;;;;;23.48;17.10;;;;;;;7.32;77.37;94839.53;4194034;28;20052;-69
2021/01/03 09:01:34;;;;;;;28.20;20.48;;;;;;;7.25;77.68;94815.78;4193552;28;20124;-70
2021/01/03 09:03:36;;;;;;;31.45;22.95;;;;;;;7.22;77.62;94826.47;4209985;28;20068;-70
2021/01/03 09:05:37;;;;;;;31.17;21.92;;;;;;;7.34;77.36;94840.22;4191513;28;20135;-69
2021/01/03 09:07:40;;;;;;;32.28;22.98;;;;;;;7.43;77.11;94828.16;4192507;28;20059;-72
2021/01/03 09:09:46;;;;;;;31.40;23.08;;;;;;;7.36;76.79;94853.94;4192979;28;20114;-74
2021/01/03 09:11:52;;;;;;;33.13;23.67;;;;;;;7.35;77.11;94832.25;4191765;28;20056;-69
2021/01/03 09:14:14;;;;;;;36.35;26.80;;;;;;;7.21;78.22;94837.88;4193603;28;20049;-69
2021/01/03 09:16:22;;;;;;;34.45;23.50;;;;;;;7.26;78.03;94835.66;4193208;28;20056;-71
2021/01/03 09:18:29;;;;;;;36.28;24.10;;;;;;;7.34;77.55;94840.22;4191554;28;20054;-69
2021/01/03 09:20:43;;;;;;;32.30;24.50;;;;;;;7.43;77.08;94825.53;4193652;28;20060;-69
2021/01/03 09:22:49;;;;;;;31.85;24.40;;;;;;;7.52;77.51;94816.88;4209036;28;20048;-70
2021/01/03 09:24:59;;;;;;;32.80;23.13;;;;;;;7.65;76.91;94814.81;4192878;28;20110;-71
2021/01/03 09:27:04;;;;;;;32.30;22.98;;;;;;;7.79;76.58;94810.97;4181405;28;20176;-69
2021/01/03 09:29:09;;;;;;;31.10;22.83;;;;;;;7.80;75.81;94807.41;4193283;28;20067;-72
2021/01/03 09:31:12;;;;;;;33.10;23.83;;;;;;;7.85;75.98;94823.47;4192180;28;20417;-69
2021/01/03 09:33:23;;;;;;;36.58;24.70;;;;;;;7.88;75.92;94811.94;4188997;28;20061;-70
2021/01/03 09:35:33;;;;;;;36.97;25.75;;;;;;;7.91;76.18;94804.63;4187666;28;20060;-71
2021/01/03 09:37:37;;;;;;;34.42;26.90;;;;;;;7.94;75.72;94816.59;4192234;28;20054;-70
2021/01/03 09:39:53;;;;;;;36.50;27.00;;;;;;;7.93;75.39;94820.16;4193264;28;20138;-70
2021/01/03 09:42:06;;;;;;;36.67;28.23;;;;;;;7.74;76.70;94807.94;4175115;28;20052;-71
2021/01/03 09:44:11;;;;;;;36.10;26.50;;;;;;;7.75;76.95;94818.25;4188542;28;20060;-72
2021/01/03 09:46:21;;;;;;;34.17;25.20;;;;;;;7.82;76.99;94818.53;4191510;28;20049;-70
2021/01/03 09:48:28;;;;;;;32.83;22.77;;;;;;;7.52;77.57;94794.25;4191469;28;20056;-70
2021/01/03 09:50:47;;;;;;;32.40;21.77;;;;;;;7.57;77.91;94817.28;4191995;28;20549;-70